Time;durP1;ratioP1;P1;durP2;ratioP2;P2;SDS_P1;SDS_P2;PMS_P1;PMS_P2;Temp;Humidity;BMP_temperature;BMP_pressure;BME280_temperature;BME280_humidity;BME280_pressure;Samples;Min_cycle;Max_cycle;Signal;HPM_P1;HPM_P2
2022/02/15 00:01:37;;;;;;;1.73;1.58;;;;;;;5.20;100.00;98353.63;5013761;28;20052;-82
2022/02/15 00:04:04;;;;;;;4.22;1.67;;;;;;;5.34;100.00;98368.25;5013339;28;20394;-82
2022/02/15 00:06:31;;;;;;;3.42;1.65;;;;;;;5.32;100.00;98368.44;5013865;28;20042;-82
2022/02/15 00:08:58;;;;;;;1.75;1.50;;;;;;;5.26;100.00;98364.56;5014161;28;20061;-82
2022/02/15 00:11:26;;;;;;;3.17;2.05;;;;;;;5.18;100.00;98350.25;5013745;28;20398;-82
2022/02/15 00:13:53;;;;;;;2.95;2.33;;;;;;;5.37;100.00;98370.59;5013245;28;20073;-82
2022/02/15 00:16:25;;;;;;;3.28;2.13;;;;;;;5.37;100.00;98352.56;5013216;28;20128;-82
2022/02/15 00:18:52;;;;;;;4.30;1.63;;;;;;;5.30;100.00;98363.22;5014080;28;20046;-82
2022/02/15 00:21:19;;;;;;;1.80;1.50;;;;;;;5.14;100.00;98352.44;5012800;28;20057;-82
2022/02/15 00:23:45;;;;;;;4.30;1.98;;;;;;;5.18;100.00;98367.28;5013106;28;20045;-82
2022/02/15 00:26:17;;;;;;;3.95;1.70;;;;;;;5.09;100.00;98358.34;5013428;28;20058;-82
2022/02/15 00:28:45;;;;;;;3.22;1.75;;;;;;;5.09;100.00;98360.22;5013673;28;20046;-83
2022/02/15 00:31:12;;;;;;;4.38;1.90;;;;;;;5.12;100.00;98368.78;5013843;28;20064;-82
2022/02/15 00:33:39;;;;;;;2.75;1.55;;;;;;;5.05;100.00;98351.59;5011962;28;20049;-82
2022/02/15 00:36:06;;;;;;;3.25;1.83;;;;;;;5.07;100.00;98364.91;5012842;28;20054;-82
2022/02/15 00:38:33;;;;;;;3.05;2.03;;;;;;;4.91;100.00;98349.63;5013631;28;20042;-82
2022/02/15 00:40:59;;;;;;;4.20;2.20;;;;;;;4.88;100.00;98366.13;5013491;28;20100;-82
2022/02/15 00:43:26;;;;;;;2.35;1.80;;;;;;;4.76;100.00;98349.44;5008961;28;20141;-82
2022/02/15 00:45:54;;;;;;;2.10;1.52;;;;;;;4.75;100.00;98358.53;5013048;28;20489;-83
2022/02/15 00:48:21;;;;;;;3.20;1.52;;;;;;;4.70;100.00;98348.25;5013570;28;20061;-83
2022/02/15 00:50:47;;;;;;;2.03;1.60;;;;;;;4.63;100.00;98349.91;5012129;28;20100;-83
2022/02/15 00:53:14;;;;;;;2.38;1.80;;;;;;;4.58;100.00;98347.72;5012014;28;20077;-82
2022/02/15 00:55:41;;;;;;;2.10;1.70;;;;;;;4.60;100.00;98356.47;5012072;28;20041;-82
2022/02/15 00:58:08;;;;;;;3.60;1.58;;;;;;;4.56;100.00;98343.50;5004388;28;20509;-82
2022/02/15 01:00:34;;;;;;;1.83;1.58;;;;;;;4.59;100.00;98357.50;5007356;28;20084;-82
2022/02/15 01:03:02;;;;;;;2.30;1.52;;;;;;;4.49;100.00;98354.13;5013563;28;20420;-82
2022/02/15 01:05:29;;;;;;;1.95;1.35;;;;;;;4.41;100.00;98337.94;5011231;28;20485;-82
2022/02/15 01:07:56;;;;;;;1.83;1.70;;;;;;;4.50;100.00;98365.72;5013057;28;20054;-82
2022/02/15 01:10:23;;;;;;;1.90;1.40;;;;;;;4.41;100.00;98362.16;5012553;28;20070;-82
2022/02/15 01:12:49;;;;;;;2.40;1.23;;;;;;;4.30;100.00;98341.78;5012694;28;20478;-82
2022/02/15 01:15:16;;;;;;;4.18;1.52;;;;;;;4.30;100.00;98349.03;5011914;28;20049;-82
2022/02/15 01:17:44;;;;;;;1.88;1.27;;;;;;;4.32;100.00;98358.63;5012458;28;20504;-82
2022/02/15 01:20:13;;;;;;;1.88;1.17;;;;;;;4.29;100.00;98352.72;5012743;28;20042;-83
2022/02/15 01:22:40;;;;;;;3.05;1.48;;;;;;;4.36;100.00;98364.53;5012410;28;20050;-82
2022/02/15 01:25:08;;;;;;;1.85;1.30;;;;;;;4.33;100.00;98363.00;5001644;28;20061;-82
2022/02/15 01:27:35;;;;;;;1.98;1.20;;;;;;;4.28;100.00;98362.66;4993080;28;20054;-82
2022/02/15 01:30:03;;;;;;;2.97;1.30;;;;;;;4.27;100.00;98366.34;5004501;28;20521;-82
2022/02/15 01:32:29;;;;;;;1.95;1.20;;;;;;;4.24;100.00;98375.56;5012404;28;20516;-82
2022/02/15 01:34:56;;;;;;;2.95;1.38;;;;;;;4.11;100.00;98356.41;5010158;28;20160;-82
2022/02/15 01:37:24;;;;;;;2.15;1.25;;;;;;;4.14;100.00;98366.81;5012141;28;20081;-82
2022/02/15 01:39:51;;;;;;;1.88;1.20;;;;;;;4.15;100.00;98379.25;5012280;28;20077;-82
2022/02/15 01:42:18;;;;;;;2.67;2.00;;;;;;;4.16;100.00;98367.50;5011070;28;20042;-82
2022/02/15 01:44:45;;;;;;;2.53;1.80;;;;;;;4.29;100.00;98379.63;5010382;28;20046;-82
2022/02/15 01:47:22;;;;;;;2.63;1.70;;;;;;;4.25;100.00;98368.38;5011781;28;20129;-82
2022/02/15 01:49:49;;;;;;;2.33;1.80;;;;;;;4.21;100.00;98367.00;5012601;28;20083;-82
2022/02/15 01:52:16;;;;;;;2.30;1.23;;;;;;;4.36;100.00;98376.13;5005651;28;20520;-82
2022/02/15 01:54:44;;;;;;;1.83;1.50;;;;;;;4.08;100.00;98362.09;4992195;28;20463;-82
2022/02/15 01:57:11;;;;;;;1.90;1.52;;;;;;;4.17;100.00;98379.94;5009222;28;20060;-82
2022/02/15 01:59:38;;;;;;;3.83;1.58;;;;;;;4.07;100.00;98369.31;5006607;28;20053;-82
2022/02/15 02:02:05;;;;;;;1.85;1.33;;;;;;;4.04;100.00;98371.50;5008849;28;20092;-82
2022/02/15 02:07:15;;;;;;;1.20;1.05;;;;;;;4.10;100.00;98389.66;5003082;28;20133;-82
2022/02/15 02:09:43;;;;;;;2.25;1.38;;;;;;;4.17;100.00;98392.53;5011847;28;20140;-82
2022/02/15 02:12:10;;;;;;;2.17;1.10;;;;;;;4.10;100.00;98378.06;5010867;28;20488;-82
2022/02/15 02:14:37;;;;;;;2.55;1.33;;;;;;;3.94;100.00;98368.09;5010952;28;20056;-82
2022/02/15 02:17:04;;;;;;;1.60;1.20;;;;;;;3.91;100.00;98374.63;5003706;28;20046;-82
2022/02/15 02:19:30;;;;;;;2.35;1.50;;;;;;;3.87;100.00;98379.50;5003882;28;20046;-82
2022/02/15 02:22:01;;;;;;;1.63;1.20;;;;;;;3.71;100.00;98382.09;5011872;28;20424;-82
2022/02/15 02:24:27;;;;;;;1.40;1.20;;;;;;;3.76;100.00;98371.69;5011307;28;20476;-82
2022/02/15 02:26:54;;;;;;;1.15;1.05;;;;;;;3.57;100.00;98369.25;5010682;28;20060;-82
2022/02/15 02:29:21;;;;;;;1.63;1.25;;;;;;;3.57;100.00;98375.50;5011113;28;20131;-82
2022/02/15 02:31:47;;;;;;;4.25;1.40;;;;;;;3.58;100.00;98352.13;5011879;28;20145;-82
2022/02/15 02:34:14;;;;;;;1.52;1.10;;;;;;;3.61;100.00;98354.50;5010256;28;20052;-82
2022/02/15 02:36:44;;;;;;;1.40;1.30;;;;;;;3.68;100.00;98356.38;5010615;28;20326;-82
2022/02/15 02:39:12;;;;;;;1.25;1.10;;;;;;;3.63;100.00;98368.59;5011405;28;20057;-82
2022/02/15 02:41:39;;;;;;;1.00;0.90;;;;;;;3.58;100.00;98368.25;5009696;28;20054;-82
2022/02/15 02:44:06;;;;;;;1.42;1.20;;;;;;;3.50;100.00;98361.81;5009953;28;20065;-82
2022/02/15 02:46:33;;;;;;;1.35;1.20;;;;;;;3.42;100.00;98364.47;5010090;28;20394;-82
2022/02/15 02:48:59;;;;;;;1.30;1.20;;;;;;;3.26;100.00;98356.31;5004767;28;20046;-82
2022/02/15 02:51:26;;;;;;;2.03;1.30;;;;;;;3.28;100.00;98370.44;5005989;28;20507;-82
2022/02/15 02:53:53;;;;;;;1.48;1.00;;;;;;;3.16;100.00;98375.22;4991020;28;20082;-82
2022/02/15 02:56:21;;;;;;;1.85;1.20;;;;;;;3.26;100.00;98389.38;5003027;28;20478;-82
2022/02/15 02:58:47;;;;;;;2.45;1.20;;;;;;;3.25;100.00;98384.19;5009622;28;20124;-82
2022/02/15 03:01:14;;;;;;;3.00;1.10;;;;;;;3.27;100.00;98385.72;5010775;28;20088;-82
2022/02/15 03:03:41;;;;;;;1.58;1.40;;;;;;;3.23;100.00;98383.50;5006566;28;20140;-82
2022/02/15 03:06:08;;;;;;;3.33;1.63;;;;;;;3.25;100.00;98378.81;5003230;28;20125;-82
2022/02/15 03:08:35;;;;;;;1.83;1.40;;;;;;;3.44;100.00;98401.94;5007441;28;20060;-82
2022/02/15 03:11:02;;;;;;;3.17;1.35;;;;;;;3.38;100.00;98378.41;5010473;28;22447;-82
2022/02/15 03:13:30;;;;;;;2.78;1.20;;;;;;;3.50;100.00;98380.63;5010273;28;20089;-82
2022/02/15 03:15:56;;;;;;;2.60;1.30;;;;;;;3.51;100.00;98393.09;5010743;28;20110;-83
2022/02/15 03:18:23;;;;;;;1.45;1.25;;;;;;;3.57;100.00;98396.13;5010861;28;20053;-82
2022/02/15 03:20:49;;;;;;;3.22;1.30;;;;;;;3.58;100.00;98390.59;5010673;28;20104;-82
2022/02/15 03:23:16;;;;;;;1.90;1.25;;;;;;;3.52;100.00;98399.28;5009945;28;20057;-82
2022/02/15 03:25:45;;;;;;;1.63;1.25;;;;;;;3.58;100.00;98395.97;5010402;28;20046;-82
2022/02/15 03:28:12;;;;;;;2.00;1.20;;;;;;;3.56;100.00;98400.66;5013294;28;20482;-82
2022/02/15 03:30:40;;;;;;;4.25;1.52;;;;;;;3.60;100.00;98406.56;5014747;28;20324;-82
2022/02/15 03:33:06;;;;;;;2.15;1.40;;;;;;;3.60;100.00;98409.25;5011447;28;20052;-82
2022/02/15 03:35:33;;;;;;;2.47;1.40;;;;;;;3.63;100.00;98412.47;4994718;28;20571;-81
2022/02/15 03:38:00;;;;;;;2.33;1.50;;;;;;;3.61;100.00;98409.09;4997672;28;20052;-82
2022/02/15 03:43:05;;;;;;;2.80;1.60;;;;;;;3.77;100.00;98412.88;5014236;28;20128;-82
2022/02/15 03:43:12;;;;;;;2.05;1.50;;;;;;;3.77;100.00;98415.59;5013620;28;20041;-82
2022/02/15 03:45:41;;;;;;;5.13;1.35;;;;;;;3.76;100.00;98408.50;5014337;28;20116;-81
2022/02/15 03:48:08;;;;;;;2.58;1.60;;;;;;;3.84;100.00;98422.84;5013818;28;20056;-82
2022/02/15 03:50:34;;;;;;;2.72;1.40;;;;;;;3.85;100.00;98418.28;5013974;28;20041;-81
2022/02/15 03:53:01;;;;;;;2.28;1.65;;;;;;;3.79;100.00;98409.03;5014035;28;20056;-82
2022/02/15 03:55:28;;;;;;;6.20;1.63;;;;;;;3.98;100.00;98418.69;5013930;28;20049;-83
2022/02/15 03:57:55;;;;;;;2.25;1.45;;;;;;;3.89;100.00;98417.81;5014565;28;20431;-82
2022/02/15 04:00:21;;;;;;;1.80;1.50;;;;;;;3.87;100.00;98416.31;5013752;28;20054;-82
2022/02/15 04:02:49;;;;;;;1.98;1.40;;;;;;;3.86;100.00;98418.13;5014330;28;20060;-82
2022/02/15 04:05:16;;;;;;;2.45;1.17;;;;;;;4.00;100.00;98448.13;5013317;28;20080;-82
2022/02/15 04:07:56;;;;;;;2.50;2.17;;;;;;;3.98;100.00;98436.69;5014115;28;20141;-82
2022/02/15 04:10:23;;;;;;;1.65;1.08;;;;;;;3.84;100.00;98425.53;5012830;28;20061;-81
2022/02/15 04:12:49;;;;;;;1.67;1.30;;;;;;;3.92;100.00;98440.88;5013712;28;20056;-82
2022/02/15 04:15:17;;;;;;;2.50;1.48;;;;;;;3.99;100.00;98432.97;5013234;28;20053;-82
2022/02/15 04:17:45;;;;;;;2.28;1.63;;;;;;;3.96;100.00;98439.53;5013924;28;20142;-82
2022/02/15 04:20:14;;;;;;;1.75;1.33;;;;;;;3.97;100.00;98446.59;5013459;28;20062;-82
2022/02/15 04:22:42;;;;;;;1.20;1.10;;;;;;;3.86;100.00;98445.03;5013992;28;20082;-82
2022/02/15 04:25:10;;;;;;;1.48;1.27;;;;;;;3.94;100.00;98452.28;5012354;28;20074;-82
2022/02/15 04:27:37;;;;;;;1.70;1.35;;;;;;;3.95;100.00;98458.53;5009048;28;20053;-82
2022/02/15 04:30:05;;;;;;;1.30;1.20;;;;;;;3.83;100.00;98455.28;5011008;28;20493;-82
2022/02/15 04:32:32;;;;;;;2.33;1.40;;;;;;;3.90;100.00;98465.22;5013615;28;20420;-82
2022/02/15 04:34:59;;;;;;;2.90;1.23;;;;;;;3.84;100.00;98446.19;5012650;28;20088;-82
2022/02/15 04:37:27;;;;;;;3.38;1.60;;;;;;;3.81;100.00;98447.38;5012647;28;20045;-83
2022/02/15 04:39:53;;;;;;;4.50;1.50;;;;;;;3.78;100.00;98445.00;5008806;28;20053;-83
2022/02/15 04:42:20;;;;;;;3.97;1.60;;;;;;;3.89;100.00;98462.69;5013307;28;20121;-83
2022/02/15 04:44:47;;;;;;;4.50;1.73;;;;;;;3.81;100.00;98451.88;5013023;28;20298;-83
2022/02/15 04:47:14;;;;;;;2.08;1.33;;;;;;;3.89;100.00;98455.47;5013250;28;20133;-83
2022/02/15 04:49:41;;;;;;;1.73;1.23;;;;;;;3.90;100.00;98451.78;5013025;28;20104;-83
2022/02/15 04:52:08;;;;;;;4.18;1.58;;;;;;;3.98;100.00;98471.66;5005649;28;20138;-83
2022/02/15 04:54:36;;;;;;;2.90;1.30;;;;;;;4.03;100.00;98478.22;5012037;28;20057;-83
2022/02/15 04:57:03;;;;;;;4.28;1.40;;;;;;;4.01;100.00;98485.63;5011474;28;20060;-82
2022/02/15 04:59:30;;;;;;;1.70;1.40;;;;;;;3.99;100.00;98481.41;5013161;28;20416;-82
2022/02/15 05:01:57;;;;;;;4.20;1.42;;;;;;;4.01;100.00;98487.47;5012925;28;20051;-82
2022/02/15 05:07:07;;;;;;;4.85;2.55;;;;;;;4.13;100.00;98490.75;5012930;28;20513;-82
2022/02/15 05:09:35;;;;;;;3.28;1.30;;;;;;;3.94;100.00;98487.25;5012170;28;20048;-81
2022/02/15 05:12:02;;;;;;;2.72;1.73;;;;;;;4.03;100.00;98485.47;5013218;28;20054;-82
2022/02/15 05:14:29;;;;;;;5.22;1.98;;;;;;;4.06;100.00;98495.91;5004671;28;20140;-82
2022/02/15 05:16:58;;;;;;;2.85;1.70;;;;;;;4.07;100.00;98497.59;4992986;28;20042;-82
2022/02/15 05:19:24;;;;;;;2.13;1.53;;;;;;;4.02;100.00;98499.91;5008537;28;20072;-82
2022/02/15 05:21:51;;;;;;;2.33;1.88;;;;;;;4.06;100.00;98506.66;5004313;28;20293;-82
2022/02/15 05:24:17;;;;;;;1.75;1.27;;;;;;;4.05;100.00;98496.88;5007791;28;20050;-82
2022/02/15 05:26:46;;;;;;;2.60;1.17;;;;;;;4.02;100.00;98502.59;5012252;28;20057;-82
2022/02/15 05:29:13;;;;;;;4.00;1.73;;;;;;;4.00;100.00;98508.13;5012791;28;20077;-82
2022/02/15 05:31:39;;;;;;;4.75;2.75;;;;;;;4.05;100.00;98513.03;5011927;28;20184;-82
2022/02/15 05:34:06;;;;;;;2.83;1.42;;;;;;;3.94;100.00;98494.50;5012137;28;20289;-82
2022/02/15 05:36:33;;;;;;;4.68;2.05;;;;;;;4.06;100.00;98504.81;5012343;28;20060;-82
2022/02/15 05:39:00;;;;;;;5.80;1.35;;;;;;;4.01;100.00;98503.63;5012042;28;20111;-82
2022/02/15 05:41:26;;;;;;;3.65;1.63;;;;;;;4.06;100.00;98509.34;5012202;28;20057;-82
2022/02/15 05:43:55;;;;;;;2.05;1.30;;;;;;;4.07;100.00;98509.19;5011618;28;20053;-82
2022/02/15 05:46:21;;;;;;;2.83;1.42;;;;;;;4.06;100.00;98510.22;5012442;28;20049;-82
2022/02/15 05:48:48;;;;;;;4.45;1.50;;;;;;;4.06;100.00;98517.41;5011433;28;20447;-82
2022/02/15 05:51:14;;;;;;;3.53;1.38;;;;;;;4.11;100.00;98520.50;5010971;28;20049;-82
2022/02/15 05:53:41;;;;;;;2.33;1.60;;;;;;;4.06;100.00;98517.41;5010436;28;20145;-82
2022/02/15 05:56:08;;;;;;;3.20;1.40;;;;;;;4.08;100.00;98526.19;5012225;28;20132;-82
2022/02/15 05:58:34;;;;;;;4.50;1.90;;;;;;;4.16;100.00;98530.78;5009579;28;20099;-82
2022/02/15 06:01:03;;;;;;;3.17;1.42;;;;;;;4.10;100.00;98524.16;5002817;28;20046;-82
2022/02/15 06:06:13;;;;;;;5.35;1.10;;;;;;;4.07;100.00;98508.34;5005778;28;20162;-83
2022/02/15 06:08:40;;;;;;;2.63;1.00;;;;;;;4.20;100.00;98518.66;5003072;28;20049;-83
2022/02/15 06:11:06;;;;;;;1.58;1.05;;;;;;;4.10;100.00;98507.19;5011998;28;20064;-82
2022/02/15 06:13:34;;;;;;;6.18;1.77;;;;;;;4.02;100.00;98518.72;5011059;28;20049;-83
2022/02/15 06:16:00;;;;;;;3.05;1.30;;;;;;;3.99;100.00;98527.97;5012123;28;20057;-83
2022/02/15 06:18:28;;;;;;;3.38;1.48;;;;;;;4.03;100.00;98541.94;5011104;28;20145;-83
2022/02/15 06:20:55;;;;;;;3.67;1.30;;;;;;;4.08;100.00;98547.72;5007172;28;20058;-83
2022/02/15 06:23:22;;;;;;;1.35;1.17;;;;;;;4.04;100.00;98543.63;5010554;28;20054;-83
2022/02/15 06:25:48;;;;;;;4.10;1.63;;;;;;;3.97;100.00;98531.81;5011834;28;20485;-83
2022/02/15 06:28:15;;;;;;;2.00;1.50;;;;;;;4.07;100.00;98565.66;5011589;28;20058;-82
2022/02/15 06:30:41;;;;;;;5.43;1.48;;;;;;;4.02;100.00;98553.69;5010978;28;20477;-83
2022/02/15 06:33:08;;;;;;;2.17;1.15;;;;;;;4.02;100.00;98562.63;5010067;28;20112;-83
2022/02/15 06:35:36;;;;;;;2.47;1.35;;;;;;;4.05;100.00;98583.84;5011357;28;20053;-82
2022/02/15 06:38:03;;;;;;;3.92;1.58;;;;;;;4.07;100.00;98573.75;5010833;28;20620;-83
2022/02/15 06:40:30;;;;;;;2.30;1.40;;;;;;;4.10;100.00;98574.44;5011324;28;20048;-82
2022/02/15 06:42:56;;;;;;;2.45;1.58;;;;;;;4.06;100.00;98579.28;5011264;28;20544;-82
2022/02/15 06:45:23;;;;;;;3.72;1.25;;;;;;;4.17;100.00;98580.84;5009302;28;20152;-83
2022/02/15 06:47:49;;;;;;;2.40;1.45;;;;;;;4.00;100.00;98570.00;5010702;28;20050;-83
2022/02/15 06:50:16;;;;;;;4.80;1.55;;;;;;;4.02;100.00;98584.16;5010745;28;20046;-83
2022/02/15 06:52:44;;;;;;;2.33;1.50;;;;;;;4.08;100.00;98593.44;5005789;28;20050;-84
2022/02/15 06:55:11;;;;;;;2.13;1.45;;;;;;;4.08;100.00;98591.59;5010887;28;20054;-83
2022/02/15 06:57:37;;;;;;;4.85;1.77;;;;;;;4.10;100.00;98610.25;5009366;28;20054;-83
2022/02/15 07:00:05;;;;;;;3.90;1.65;;;;;;;4.07;100.00;98607.88;5009718;28;20045;-83
2022/02/15 07:02:32;;;;;;;3.70;1.95;;;;;;;4.15;100.00;98625.91;5010987;28;20149;-83
2022/02/15 07:04:59;;;;;;;2.00;1.48;;;;;;;4.07;100.00;98615.94;5010035;28;20504;-82
2022/02/15 07:07:25;;;;;;;6.40;1.85;;;;;;;4.21;100.00;98631.50;5010365;28;20050;-82
2022/02/15 07:09:56;;;;;;;3.30;1.63;;;;;;;4.28;100.00;98633.59;5006873;28;20042;-82
2022/02/15 07:12:27;;;;;;;8.10;1.80;;;;;;;4.21;100.00;98628.81;5005690;28;20824;-83
2022/02/15 07:14:54;;;;;;;2.85;1.35;;;;;;;4.34;100.00;98635.66;5008618;28;20096;-82
2022/02/15 07:17:20;;;;;;;3.75;1.50;;;;;;;4.27;100.00;98630.03;5012242;28;20057;-83
2022/02/15 07:19:50;;;;;;;4.13;1.60;;;;;;;4.38;100.00;98635.19;5000914;28;20050;-83
2022/02/15 07:22:20;;;;;;;3.38;1.70;;;;;;;4.45;100.00;98648.00;5012926;28;20050;-83
2022/02/15 07:24:50;;;;;;;3.30;1.67;;;;;;;4.46;100.00;98646.97;5010529;28;20060;-82
2022/02/15 07:27:18;;;;;;;2.35;1.83;;;;;;;4.53;100.00;98651.59;5005943;28;20069;-82
2022/02/15 07:29:47;;;;;;;5.43;3.83;;;;;;;4.53;100.00;98653.41;5002972;28;20038;-82
2022/02/15 07:32:14;;;;;;;7.32;2.65;;;;;;;4.48;100.00;98635.06;4993561;28;20058;-82
2022/02/15 07:34:44;;;;;;;5.00;2.20;;;;;;;4.62;100.00;98655.16;4993107;28;20050;-81
2022/02/15 07:37:10;;;;;;;8.45;3.45;;;;;;;4.59;100.00;98658.16;5009810;28;20061;-83
2022/02/15 07:39:37;;;;;;;4.95;1.80;;;;;;;4.59;100.00;98653.66;5012151;28;20069;-82
2022/02/15 07:42:04;;;;;;;7.68;1.52;;;;;;;4.74;100.00;98671.88;5012890;28;20133;-82
2022/02/15 07:44:32;;;;;;;3.13;1.77;;;;;;;4.76;100.00;98676.13;5011896;28;20093;-84
2022/02/15 07:46:58;;;;;;;6.65;3.58;;;;;;;4.84;100.00;98686.09;5007431;28;20081;-82
2022/02/15 07:49:25;;;;;;;5.65;2.17;;;;;;;4.82;100.00;98680.03;5012337;28;20046;-81
2022/02/15 07:51:53;;;;;;;6.82;1.83;;;;;;;4.88;100.00;98683.94;5011229;28;20108;-82
2022/02/15 07:54:20;;;;;;;6.05;2.40;;;;;;;4.93;100.00;98703.16;5010031;28;20046;-81
2022/02/15 07:56:47;;;;;;;4.57;2.22;;;;;;;4.89;100.00;98701.75;5009638;28;20285;-81
2022/02/15 07:59:13;;;;;;;6.13;2.58;;;;;;;4.81;100.00;98690.97;5010395;28;20078;-82
2022/02/15 08:01:42;;;;;;;5.45;2.72;;;;;;;4.91;100.00;98699.78;5007345;28;20556;-82
2022/02/15 08:04:10;;;;;;;95.55;10.82;;;;;;;4.92;100.00;98714.91;5007121;28;20550;-81
2022/02/15 08:06:37;;;;;;;7.63;3.05;;;;;;;4.91;100.00;98707.84;5009559;28;20060;-81
2022/02/15 08:09:03;;;;;;;4.00;1.50;;;;;;;4.91;100.00;98705.16;5002609;28;20544;-81
2022/02/15 08:11:38;;;;;;;15.07;2.10;;;;;;;4.85;100.00;98695.88;5006147;28;20438;-82
2022/02/15 08:14:05;;;;;;;3.33;1.55;;;;;;;4.95;100.00;98691.22;5006328;28;20069;-82
2022/02/15 08:16:31;;;;;;;5.32;1.85;;;;;;;4.96;100.00;98695.56;5010564;28;20042;-82
2022/02/15 08:18:59;;;;;;;13.23;2.95;;;;;;;5.13;100.00;98715.38;5006560;28;20477;-82
2022/02/15 08:21:26;;;;;;;5.30;2.25;;;;;;;5.18;100.00;98711.34;5010179;28;20046;-82
2022/02/15 08:23:53;;;;;;;8.02;1.70;;;;;;;5.08;100.00;98703.38;5011304;28;20516;-82
2022/02/15 08:26:20;;;;;;;6.25;2.35;;;;;;;5.11;100.00;98708.44;5007789;28;20052;-82
2022/02/15 08:28:47;;;;;;;3.70;1.67;;;;;;;5.12;100.00;98716.38;5009546;28;20124;-83
2022/02/15 08:31:15;;;;;;;4.03;2.03;;;;;;;5.13;100.00;98717.22;5011770;28;20049;-83
2022/02/15 08:33:42;;;;;;;3.97;1.90;;;;;;;5.11;100.00;98722.75;5012712;28;20411;-82
2022/02/15 08:36:10;;;;;;;4.03;2.22;;;;;;;5.17;100.00;98732.06;5013003;28;20100;-82
2022/02/15 08:38:37;;;;;;;5.88;2.80;;;;;;;5.19;100.00;98738.13;5013090;28;20121;-83
2022/02/15 08:41:04;;;;;;;5.38;3.00;;;;;;;5.16;100.00;98735.75;5012059;28;20516;-83
2022/02/15 08:43:31;;;;;;;7.00;2.90;;;;;;;5.23;100.00;98726.03;5011329;28;20143;-83
2022/02/15 08:45:59;;;;;;;5.38;2.15;;;;;;;5.35;100.00;98739.22;5005114;28;20054;-83
2022/02/15 08:48:28;;;;;;;7.63;2.35;;;;;;;5.29;100.00;98728.06;5011985;28;20050;-83
2022/02/15 08:50:55;;;;;;;4.60;2.95;;;;;;;5.45;100.00;98739.91;5006396;28;20433;-83
2022/02/15 08:53:23;;;;;;;4.47;2.10;;;;;;;5.50;100.00;98735.72;5009089;28;20410;-82
2022/02/15 08:55:49;;;;;;;5.05;2.67;;;;;;;5.61;100.00;98742.66;5009244;28;20104;-83
2022/02/15 08:58:16;;;;;;;4.75;2.00;;;;;;;5.58;100.00;98739.47;5009904;28;20045;-82
2022/02/15 09:00:43;;;;;;;5.78;2.08;;;;;;;5.56;100.00;98734.25;5007886;28;20068;-83
2022/02/15 09:03:09;;;;;;;3.25;1.95;;;;;;;5.73;100.00;98743.22;5006701;28;20140;-82
2022/02/15 09:05:36;;;;;;;4.15;1.52;;;;;;;5.65;100.00;98743.22;5003646;28;20085;-83
2022/02/15 09:08:02;;;;;;;4.45;1.77;;;;;;;5.64;100.00;98734.25;5012755;28;20481;-83
2022/02/15 09:10:31;;;;;;;6.13;1.63;;;;;;;5.80;100.00;98765.00;5012783;28;20133;-83
2022/02/15 09:12:57;;;;;;;4.65;2.53;;;;;;;5.75;100.00;98735.81;5012354;28;20049;-83
2022/02/15 09:15:24;;;;;;;3.13;1.85;;;;;;;5.81;100.00;98751.34;5010752;28;20056;-84
2022/02/15 09:17:51;;;;;;;4.30;1.83;;;;;;;5.77;100.00;98757.25;5011369;28;20481;-82
2022/02/15 09:20:17;;;;;;;5.13;1.73;;;;;;;5.76;100.00;98760.94;5012473;28;20501;-84
2022/02/15 09:22:44;;;;;;;40.78;6.32;;;;;;;5.73;100.00;98758.56;5012144;28;20080;-83
2022/02/15 09:25:11;;;;;;;4.47;2.33;;;;;;;5.58;100.00;98743.00;5011630;28;20132;-83
2022/02/15 09:27:39;;;;;;;9.57;2.85;;;;;;;5.70;100.00;98764.28;5011173;28;20053;-82
2022/02/15 09:30:06;;;;;;;3.25;2.20;;;;;;;5.62;100.00;98751.63;5000049;28;20050;-82
2022/02/15 09:32:33;;;;;;;5.15;2.33;;;;;;;5.62;100.00;98749.75;5012239;28;20489;-82
2022/02/15 09:35:00;;;;;;;3.83;2.58;;;;;;;5.81;100.00;98772.94;5010584;28;20414;-83
2022/02/15 09:37:26;;;;;;;4.25;3.03;;;;;;;5.82;100.00;98771.06;5011851;28;20489;-82
2022/02/15 09:39:55;;;;;;;5.35;3.63;;;;;;;5.88;100.00;98773.09;5011797;28;20408;-82
2022/02/15 09:42:22;;;;;;;5.00;3.00;;;;;;;5.89;100.00;98766.72;5004342;28;20054;-82
2022/02/15 09:44:50;;;;;;;6.43;3.33;;;;;;;5.84;100.00;98755.56;5006340;28;20560;-82
2022/02/15 09:47:23;;;;;;;7.07;3.72;;;;;;;6.00;100.00;98769.13;5009372;28;20045;-82
2022/02/15 09:49:51;;;;;;;8.68;4.07;;;;;;;6.01;100.00;98765.41;5010327;28;20493;-82
2022/02/15 09:52:19;;;;;;;5.53;3.38;;;;;;;6.09;100.00;98759.19;5010632;28;20064;-82
2022/02/15 09:54:46;;;;;;;13.27;3.70;;;;;;;6.22;100.00;98772.22;5011061;28;20061;-83
2022/02/15 09:57:14;;;;;;;8.63;4.30;;;;;;;6.09;100.00;98761.06;5011992;28;20045;-82
2022/02/15 09:59:40;;;;;;;4.75;3.10;;;;;;;6.15;100.00;98772.00;5005793;28;20401;-83
2022/02/15 10:02:10;;;;;;;6.75;4.10;;;;;;;6.13;100.00;98771.34;4992569;28;20494;-83
2022/02/15 10:04:38;;;;;;;5.35;3.03;;;;;;;6.02;100.00;98783.31;4995211;28;20396;-83
2022/02/15 10:07:06;;;;;;;5.97;3.55;;;;;;;5.94;100.00;98767.03;5008733;28;20049;-83
2022/02/15 10:09:34;;;;;;;4.43;3.30;;;;;;;6.02;100.00;98785.13;5008643;28;20553;-82
2022/02/15 10:12:06;;;;;;;22.02;6.53;;;;;;;6.03;100.00;98776.88;5008831;28;20105;-82
2022/02/15 10:14:36;;;;;;;5.15;3.30;;;;;;;6.07;100.00;98779.25;5006512;28;20046;-82
2022/02/15 10:17:03;;;;;;;7.47;3.00;;;;;;;6.13;100.00;98792.09;5008463;28;20058;-82
2022/02/15 10:19:31;;;;;;;7.40;3.58;;;;;;;6.10;100.00;98781.63;5008049;28;20413;-82
2022/02/15 10:21:59;;;;;;;5.57;2.83;;;;;;;6.19;100.00;98777.94;5007935;28;20052;-83
2022/02/15 10:24:27;;;;;;;8.63;2.70;;;;;;;6.43;100.00;98806.81;4999368;28;20103;-82
2022/02/15 10:26:55;;;;;;;4.65;2.50;;;;;;;6.44;100.00;98783.34;5008609;28;20056;-82
2022/02/15 10:29:22;;;;;;;3.88;2.42;;;;;;;6.47;100.00;98788.41;5007522;28;20077;-82
2022/02/15 10:31:48;;;;;;;10.48;3.28;;;;;;;6.61;100.00;98778.81;5007516;28;20060;-82
2022/02/15 10:34:15;;;;;;;22.60;3.40;;;;;;;6.94;100.00;98809.38;5001918;28;20058;-82
2022/02/15 10:36:54;;;;;;;5.47;2.75;;;;;;;7.03;100.00;98808.34;5005382;28;20077;-82
2022/02/15 10:39:20;;;;;;;138.02;17.70;;;;;;;7.00;100.00;98797.00;5008622;28;20041;-83
2022/02/15 10:41:47;;;;;;;13.68;3.22;;;;;;;6.99;100.00;98801.59;5007710;28;20085;-83
2022/02/15 10:44:15;;;;;;;32.75;10.60;;;;;;;6.99;100.00;98816.97;4992581;28;20054;-83
2022/02/15 10:46:41;;;;;;;2.67;1.75;;;;;;;6.86;96.70;98826.41;5008586;28;20502;-83
2022/02/15 10:49:13;;;;;;;14.40;3.08;;;;;;;6.82;97.03;98822.38;5008718;28;20168;-83
2022/02/15 10:51:39;;;;;;;6.20;1.70;;;;;;;6.84;96.79;98838.41;5006066;28;20565;-83
2022/02/15 10:54:10;;;;;;;2.22;1.63;;;;;;;6.94;99.51;98832.84;5008409;28;20061;-83
2022/02/15 10:56:41;;;;;;;60.53;5.85;;;;;;;6.88;98.36;98837.03;5008319;28;20077;-83
2022/02/15 10:59:08;;;;;;;4.18;1.75;;;;;;;6.95;99.13;98843.47;5006547;28;20137;-83
2022/02/15 11:01:35;;;;;;;8.48;2.42;;;;;;;6.88;99.51;98842.44;5006913;28;20420;-83
2022/02/15 11:04:03;;;;;;;3.40;2.10;;;;;;;7.02;100.00;98846.34;5006919;28;20056;-83
2022/02/15 11:06:31;;;;;;;3.33;1.60;;;;;;;6.86;99.20;98829.09;4989991;28;20054;-83
2022/02/15 11:09:01;;;;;;;5.20;1.92;;;;;;;6.97;99.44;98841.47;5006302;28;20063;-83
2022/02/15 11:11:42;;;;;;;4.65;2.35;;;;;;;6.93;97.89;98831.16;5008149;28;20134;-82
2022/02/15 11:14:10;;;;;;;4.05;1.80;;;;;;;7.07;98.54;98844.81;5008050;28;20049;-83
2022/02/15 11:16:36;;;;;;;9.73;2.03;;;;;;;7.23;97.46;98835.00;5005732;28;20046;-83
2022/02/15 11:19:08;;;;;;;2.45;1.83;;;;;;;7.22;97.08;98836.84;5007840;28;20046;-83
2022/02/15 11:21:35;;;;;;;2.47;1.70;;;;;;;7.30;97.79;98854.94;5008879;28;20057;-83
2022/02/15 11:24:08;;;;;;;2.72;1.80;;;;;;;7.46;98.93;98856.75;5007044;28;20050;-83
2022/02/15 11:26:41;;;;;;;3.13;1.77;;;;;;;7.36;94.95;98856.97;5002713;28;20073;-83
2022/02/15 11:29:08;;;;;;;2.83;1.60;;;;;;;7.39;94.66;98851.22;5010983;28;20103;-83
2022/02/15 11:31:40;;;;;;;2.08;1.60;;;;;;;7.41;92.41;98848.34;5006407;28;20151;-83
2022/02/15 11:34:09;;;;;;;3.90;1.70;;;;;;;7.31;94.41;98853.91;5007075;28;20073;-83
2022/02/15 11:36:45;;;;;;;2.75;2.20;;;;;;;7.22;96.26;98849.53;5007802;28;20422;-82
2022/02/15 11:39:17;;;;;;;1.98;1.73;;;;;;;7.26;96.63;98845.47;5008169;28;20042;-83
2022/02/15 11:41:47;;;;;;;3.83;2.17;;;;;;;7.15;96.60;98852.09;5008316;28;20045;-83
2022/02/15 11:44:15;;;;;;;4.15;1.70;;;;;;;7.14;93.98;98863.91;4996055;28;20062;-83